createdAt,value
2023-02-24T00:06:56.735Z,5.3
2023-02-24T00:14:29.051Z,5.3
2023-02-24T00:22:01.366Z,5.3
2023-02-24T00:29:33.710Z,5.2
2023-02-24T00:37:06.039Z,5.3
2023-02-24T00:44:38.377Z,5.3
2023-02-24T00:52:10.682Z,5.3
2023-02-24T00:59:43.003Z,5.3
2023-02-24T01:07:15.326Z,5.3
2023-02-24T01:14:47.726Z,5.3
2023-02-24T01:22:20.146Z,5.3
2023-02-24T01:29:52.490Z,5.3
2023-02-24T01:37:24.816Z,5.3
2023-02-24T01:44:57.185Z,5.3
2023-02-24T01:52:29.514Z,5.2
2023-02-24T02:00:01.847Z,5.2
2023-02-24T02:07:34.189Z,5.2
2023-02-24T02:15:06.516Z,5.2
2023-02-24T02:22:38.834Z,5.3
2023-02-24T02:30:11.157Z,5.2
2023-02-24T02:37:43.489Z,5.3
2023-02-24T02:45:15.846Z,5.2
2023-02-24T02:52:48.164Z,5.3
2023-02-24T03:00:20.481Z,5.3
2023-02-24T03:07:52.800Z,5.2
2023-02-24T03:15:25.112Z,5.3
2023-02-24T03:22:57.447Z,5.3
2023-02-24T03:30:29.869Z,5.2
2023-02-24T03:38:02.231Z,5.2
2023-02-24T03:45:34.565Z,5.3
2023-02-24T03:53:06.865Z,5.3
2023-02-24T04:00:39.295Z,5.3
2023-02-24T04:08:11.638Z,5.2
2023-02-24T04:15:44.112Z,5.3
2023-02-24T04:23:16.512Z,5.2
2023-02-24T04:30:48.890Z,5.2
2023-02-24T04:38:21.225Z,5.3
2023-02-24T04:45:53.545Z,5.3
2023-02-24T04:53:25.902Z,5.2
2023-02-24T05:00:58.246Z,4.7
2023-02-24T05:08:31.041Z,4.7
2023-02-24T05:10:33.314Z,54.8
2023-02-24T05:11:20.881Z,54.2
2023-02-24T05:12:08.346Z,54.2
2023-02-24T05:12:55.659Z,53.7
2023-02-24T05:13:42.975Z,54.1
2023-02-24T05:14:30.299Z,53.9
2023-02-24T05:15:17.611Z,54.0
2023-02-24T05:16:05.028Z,54.0
2023-02-24T05:16:52.455Z,53.8
2023-02-24T05:17:39.875Z,54.1
2023-02-24T05:18:27.183Z,53.9
2023-02-24T05:19:14.505Z,53.8
2023-02-24T05:20:01.809Z,54.1
2023-02-24T05:20:49.101Z,53.8
2023-02-24T05:21:36.480Z,54.2
2023-02-24T05:22:23.842Z,53.9
2023-02-24T05:23:11.152Z,54.0
2023-02-24T05:23:58.476Z,54.2
2023-02-24T05:24:45.981Z,54.2
2023-02-24T05:25:33.292Z,54.0
2023-02-24T05:26:20.615Z,53.6
2023-02-24T05:27:07.910Z,54.0
2023-02-24T05:27:55.229Z,53.8
2023-02-24T05:28:43.148Z,53.9
2023-02-24T05:29:30.534Z,54.0
2023-02-24T05:30:17.833Z,54.0
2023-02-24T05:31:05.201Z,53.9
2023-02-24T05:31:52.572Z,54.1
2023-02-24T05:32:39.985Z,53.7
2023-02-24T05:33:27.300Z,55.9
2023-02-24T05:34:14.622Z,55.8
2023-02-24T05:35:02.206Z,56.1
2023-02-24T05:35:49.534Z,55.9
2023-02-24T05:36:36.847Z,55.7
2023-02-24T05:37:24.222Z,56.0
2023-02-24T05:38:11.590Z,55.9
2023-02-24T05:38:58.920Z,56.5
2023-02-24T05:39:46.252Z,55.9
2023-02-24T05:40:33.581Z,55.7
2023-02-24T05:41:21.178Z,56.1
2023-02-24T05:42:08.852Z,56.2
2023-02-24T05:42:56.155Z,56.3
2023-02-24T05:43:43.467Z,56.0
2023-02-24T05:44:30.785Z,55.6
2023-02-24T05:45:18.107Z,55.7
2023-02-24T05:46:05.419Z,56.0
2023-02-24T05:46:52.811Z,55.8
2023-02-24T05:47:40.156Z,56.0
2023-02-24T05:48:27.544Z,56.0
2023-02-24T05:49:14.861Z,56.3
2023-02-24T05:50:02.192Z,56.4
2023-02-24T05:50:49.522Z,56.0
2023-02-24T05:51:36.873Z,55.9
2023-02-24T05:52:24.190Z,55.9
2023-02-24T05:53:11.502Z,55.9
2023-02-24T05:53:58.792Z,56.1
2023-02-24T05:54:46.108Z,56.2
2023-02-24T05:55:33.434Z,56.2
2023-02-24T05:56:20.751Z,56.3
2023-02-24T05:57:08.060Z,56.7
2023-02-24T05:57:55.551Z,55.7
2023-02-24T05:58:42.957Z,55.3
2023-02-24T05:59:30.285Z,56.1
2023-02-24T06:00:17.753Z,55.9
2023-02-24T06:01:05.149Z,56.1
2023-02-24T06:01:52.974Z,56.3
2023-02-24T06:02:40.350Z,56.4
2023-02-24T06:03:27.720Z,56.4
2023-02-24T06:04:15.045Z,56.1
2023-02-24T06:05:02.346Z,56.2
2023-02-24T06:05:49.673Z,56.4
2023-02-24T06:06:36.984Z,56.3
2023-02-24T06:07:24.326Z,57.0
2023-02-24T06:08:11.734Z,57.0
2023-02-24T06:08:59.098Z,55.9
2023-02-24T06:09:46.459Z,56.5
2023-02-24T06:10:33.762Z,56.5
2023-02-24T06:11:21.559Z,56.4
2023-02-24T06:12:09.275Z,56.2
2023-02-24T06:12:56.655Z,56.9
2023-02-24T06:13:44.198Z,56.5
2023-02-24T06:14:31.673Z,55.9
2023-02-24T06:15:19.032Z,56.3
2023-02-24T06:16:06.537Z,56.8
2023-02-24T06:16:53.941Z,56.9
2023-02-24T06:17:41.299Z,56.8
2023-02-24T06:18:28.618Z,56.2
2023-02-24T06:19:17.616Z,56.3
2023-02-24T06:20:05.089Z,55.7
2023-02-24T06:20:52.438Z,56.6
2023-02-24T06:21:39.743Z,56.3
2023-02-24T06:22:27.210Z,54.5
2023-02-24T06:23:14.524Z,52.9
2023-02-24T06:24:01.822Z,52.5
2023-02-24T06:24:49.164Z,52.5
2023-02-24T06:25:36.520Z,52.6
2023-02-24T06:26:23.822Z,51.8
2023-02-24T06:27:11.132Z,52.0
2023-02-24T06:27:58.528Z,52.1
2023-02-24T06:28:45.848Z,55.1
2023-02-24T06:29:33.369Z,54.8
2023-02-24T06:30:20.779Z,55.8
2023-02-24T06:31:08.117Z,55.9
2023-02-24T06:31:55.531Z,55.7
2023-02-24T06:32:43.152Z,55.8
2023-02-24T06:33:30.866Z,56.1
2023-02-24T06:34:18.190Z,55.8
2023-02-24T06:35:05.544Z,55.4
2023-02-24T06:35:52.968Z,55.9
2023-02-24T06:36:40.301Z,56.0
2023-02-24T06:37:27.619Z,55.7
2023-02-24T06:38:15.059Z,56.2
2023-02-24T06:39:02.382Z,56.1
2023-02-24T06:39:49.702Z,55.8
2023-02-24T06:40:37.148Z,55.9
2023-02-24T06:41:24.468Z,55.6
2023-02-24T06:42:11.798Z,55.4
2023-02-24T06:42:59.220Z,55.8
2023-02-24T06:43:46.534Z,55.7
2023-02-24T06:44:33.847Z,56.0
2023-02-24T06:45:21.266Z,55.6
2023-02-24T06:46:08.661Z,55.7
2023-02-24T06:46:56.040Z,55.9
2023-02-24T06:47:43.431Z,55.9
2023-02-24T06:48:30.730Z,55.9
2023-02-24T06:49:18.027Z,55.0
2023-02-24T06:50:05.481Z,55.6
2023-02-24T06:50:52.795Z,55.9
2023-02-24T06:51:40.145Z,55.8
2023-02-24T06:52:27.520Z,55.6
2023-02-24T06:53:14.816Z,56.0
2023-02-24T06:54:02.136Z,56.1
2023-02-24T06:54:49.616Z,56.1
2023-02-24T06:55:36.966Z,55.7
2023-02-24T06:56:24.334Z,56.2
2023-02-24T06:57:11.714Z,56.2
2023-02-24T06:57:59.031Z,56.1
2023-02-24T06:58:46.396Z,56.0
2023-02-24T06:59:33.765Z,56.0
2023-02-24T07:00:21.096Z,56.0
2023-02-24T07:01:08.450Z,56.1
2023-02-24T07:01:55.920Z,56.3
2023-02-24T07:02:43.271Z,56.3
2023-02-24T07:03:30.609Z,56.2
2023-02-24T07:04:18.196Z,56.3
2023-02-24T07:05:05.554Z,56.2
2023-02-24T07:05:52.884Z,56.0
2023-02-24T07:06:40.322Z,56.6
2023-02-24T07:07:27.662Z,56.4
2023-02-24T07:08:14.982Z,56.2
2023-02-24T07:09:02.400Z,56.4
2023-02-24T07:09:49.741Z,56.1
2023-02-24T07:10:37.050Z,56.5
2023-02-24T07:11:24.512Z,56.1
2023-02-24T07:12:11.825Z,56.7
2023-02-24T07:12:59.196Z,56.4
2023-02-24T07:13:46.560Z,56.6
2023-02-24T07:14:33.866Z,56.3
2023-02-24T07:15:21.169Z,56.4
2023-02-24T07:16:08.634Z,56.7
2023-02-24T07:16:55.991Z,55.8
2023-02-24T07:17:43.380Z,56.3
2023-02-24T07:18:30.746Z,56.1
2023-02-24T07:19:18.072Z,56.2
2023-02-24T07:20:05.404Z,55.8
2023-02-24T07:20:52.807Z,55.9
2023-02-24T07:21:40.400Z,56.2
2023-02-24T07:22:27.711Z,56.0
2023-02-24T07:23:15.137Z,56.4
2023-02-24T07:24:02.664Z,56.2
2023-02-24T07:24:49.982Z,56.3
2023-02-24T07:25:37.403Z,56.4
2023-02-24T07:26:24.721Z,56.6
2023-02-24T07:27:12.121Z,56.1
2023-02-24T07:27:59.569Z,56.6
2023-02-24T07:28:46.915Z,56.4
2023-02-24T07:29:34.218Z,56.4
2023-02-24T07:30:21.627Z,56.9
2023-02-24T07:31:09.039Z,56.4
2023-02-24T07:31:56.674Z,56.4
2023-02-24T07:32:44.120Z,56.9
2023-02-24T07:33:31.527Z,56.6
2023-02-24T07:34:18.862Z,56.7
2023-02-24T07:35:06.269Z,57.1
2023-02-24T07:35:53.669Z,56.6
2023-02-24T07:36:41.111Z,56.8
2023-02-24T07:37:28.488Z,57.2
2023-02-24T07:38:16.046Z,57.1
2023-02-24T07:39:03.306Z,57.1
2023-02-24T07:39:50.792Z,57.4
2023-02-24T07:40:38.133Z,57.3
2023-02-24T07:41:25.485Z,57.1
2023-02-24T07:42:12.800Z,57.4
2023-02-24T07:43:00.117Z,57.4
2023-02-24T07:43:47.431Z,57.3
2023-02-24T07:44:34.751Z,57.1
2023-02-24T07:45:22.163Z,57.8
2023-02-24T07:46:09.580Z,56.9
2023-02-24T07:46:56.895Z,57.2
2023-02-24T07:47:44.209Z,57.2
2023-02-24T07:48:31.531Z,57.0
2023-02-24T07:49:18.853Z,56.6
2023-02-24T07:50:06.208Z,57.2
2023-02-24T07:50:53.518Z,56.9
2023-02-24T07:51:40.858Z,56.7
2023-02-24T07:52:28.266Z,57.2
2023-02-24T07:53:15.627Z,57.3
2023-02-24T07:54:02.966Z,57.6
2023-02-24T07:54:50.278Z,57.5
2023-02-24T07:55:37.624Z,57.5
2023-02-24T07:56:24.940Z,57.4
2023-02-24T07:57:12.270Z,57.4
2023-02-24T07:57:59.593Z,57.3
2023-02-24T07:58:46.937Z,57.1
2023-02-24T07:59:34.265Z,57.2
2023-02-24T08:00:21.581Z,57.8
2023-02-24T08:01:08.912Z,57.5
2023-02-24T08:01:56.372Z,57.8
2023-02-24T08:02:43.744Z,57.4
2023-02-24T08:03:31.115Z,57.6
2023-02-24T08:04:18.532Z,57.5
2023-02-24T08:05:05.965Z,56.7
2023-02-24T08:05:53.312Z,57.1
2023-02-24T08:06:40.908Z,57.2
2023-02-24T08:07:28.244Z,57.5
2023-02-24T08:08:15.625Z,57.3
2023-02-24T08:09:02.937Z,57.4
2023-02-24T08:09:50.510Z,57.3
2023-02-24T08:10:37.858Z,57.9
2023-02-24T08:11:25.200Z,57.4
2023-02-24T08:12:12.776Z,57.4
2023-02-24T08:13:00.080Z,57.5
2023-02-24T08:13:47.396Z,57.5
2023-02-24T08:14:34.721Z,57.3
2023-02-24T08:15:22.354Z,57.2
2023-02-24T08:16:09.846Z,57.6
2023-02-24T08:16:57.717Z,57.2
2023-02-24T08:17:45.037Z,57.3
2023-02-24T08:18:32.703Z,57.2
2023-02-24T08:19:20.060Z,56.7
2023-02-24T08:20:07.491Z,57.0
2023-02-24T08:20:54.837Z,57.3
2023-02-24T08:21:42.427Z,57.3
2023-02-24T08:22:29.769Z,57.4
2023-02-24T08:23:17.655Z,57.5
2023-02-24T08:24:05.120Z,57.0
2023-02-24T08:24:52.451Z,57.2
2023-02-24T08:25:39.773Z,56.9
2023-02-24T08:26:27.087Z,57.8
2023-02-24T08:27:14.429Z,57.8
2023-02-24T08:28:07.856Z,57.9
2023-02-24T08:28:56.071Z,58.1
2023-02-24T08:29:43.482Z,57.5
2023-02-24T08:30:30.823Z,57.7
2023-02-24T08:31:18.529Z,58.3
2023-02-24T08:32:06.207Z,58.2
2023-02-24T08:32:53.691Z,58.4
2023-02-24T08:33:41.164Z,58.4
2023-02-24T08:34:28.462Z,58.4
2023-02-24T08:35:15.928Z,58.2
2023-02-24T08:36:03.262Z,58.3
2023-02-24T08:36:50.612Z,58.3
2023-02-24T08:37:38.032Z,58.6
2023-02-24T08:38:26.574Z,58.3
2023-02-24T08:39:13.942Z,58.6
2023-02-24T08:40:01.385Z,58.4
2023-02-24T08:40:48.708Z,58.3
2023-02-24T08:41:36.032Z,58.4
2023-02-24T08:42:23.481Z,58.7
2023-02-24T08:43:10.778Z,58.4
2023-02-24T08:43:58.117Z,58.7
2023-02-24T08:44:45.561Z,58.2
2023-02-24T08:45:32.896Z,58.6
2023-02-24T08:46:20.245Z,58.4
2023-02-24T08:47:07.678Z,58.3
2023-02-24T08:47:54.998Z,58.5
2023-02-24T08:48:42.465Z,58.1
2023-02-24T08:49:29.893Z,57.8
2023-02-24T08:50:17.227Z,57.4
2023-02-24T08:51:04.559Z,58.1
2023-02-24T08:51:51.952Z,57.9
2023-02-24T08:52:39.272Z,58.0
2023-02-24T08:53:26.606Z,58.0
2023-02-24T08:54:14.050Z,57.8
2023-02-24T08:55:01.428Z,57.5
2023-02-24T08:55:48.753Z,57.7
2023-02-24T08:56:36.191Z,58.1
2023-02-24T08:57:23.510Z,58.5
2023-02-24T08:58:10.836Z,58.3
2023-02-24T08:58:58.317Z,58.2
2023-02-24T08:59:45.876Z,57.7
2023-02-24T09:00:33.791Z,57.8
2023-02-24T09:01:21.465Z,56.9
2023-02-24T09:02:09.031Z,56.8
2023-02-24T09:02:56.658Z,56.8
2023-02-24T09:03:43.969Z,57.2
2023-02-24T09:04:31.306Z,56.9
2023-02-24T09:05:18.724Z,56.5
2023-02-24T09:06:06.034Z,56.5
2023-02-24T09:06:57.731Z,56.9
2023-02-24T09:07:45.184Z,56.4
2023-02-24T09:08:32.504Z,56.9
2023-02-24T09:09:19.821Z,58.8
2023-02-24T09:10:07.171Z,58.7
2023-02-24T09:10:54.572Z,58.8
2023-02-24T09:11:41.889Z,58.3
2023-02-24T09:12:29.398Z,59.0
2023-02-24T09:13:16.764Z,59.3
2023-02-24T09:14:04.111Z,59.0
2023-02-24T09:14:51.418Z,58.6
2023-02-24T09:15:38.877Z,59.0
2023-02-24T09:16:26.250Z,59.0
2023-02-24T09:17:13.582Z,58.7
2023-02-24T09:18:01.080Z,59.1
2023-02-24T09:18:48.411Z,58.7
2023-02-24T09:19:35.990Z,58.8
2023-02-24T09:20:23.292Z,58.8
2023-02-24T09:21:10.623Z,59.3
2023-02-24T09:21:57.957Z,59.3
2023-02-24T09:22:45.359Z,59.2
2023-02-24T09:23:32.691Z,59.4
2023-02-24T09:24:20.024Z,59.3
2023-02-24T09:25:07.416Z,59.5
2023-02-24T09:25:54.803Z,59.4
2023-02-24T09:26:42.241Z,59.0
2023-02-24T09:27:29.588Z,58.9
2023-02-24T09:28:17.392Z,59.1
2023-02-24T09:29:05.000Z,58.9
2023-02-24T09:29:52.404Z,58.7
2023-02-24T09:30:39.745Z,58.5
2023-02-24T09:31:27.396Z,58.6
2023-02-24T09:32:15.206Z,58.5
2023-02-24T09:33:02.746Z,58.6
2023-02-24T09:33:50.114Z,58.7
2023-02-24T09:34:37.433Z,58.2
2023-02-24T09:35:24.847Z,58.4
2023-02-24T09:36:12.175Z,58.8
2023-02-24T09:36:59.495Z,58.8
2023-02-24T09:37:46.975Z,58.3
2023-02-24T09:38:34.279Z,57.7
2023-02-24T09:39:21.598Z,58.7
2023-02-24T09:40:09.045Z,58.7
2023-02-24T09:40:56.426Z,58.7
2023-02-24T09:41:43.739Z,58.9
2023-02-24T09:42:31.232Z,58.4
2023-02-24T09:43:18.540Z,58.6
2023-02-24T09:44:06.360Z,58.9
2023-02-24T09:44:53.737Z,58.9
2023-02-24T09:45:41.354Z,58.9
2023-02-24T09:46:28.873Z,59.0
2023-02-24T09:47:16.286Z,59.2
2023-02-24T09:48:03.655Z,59.0
2023-02-24T09:48:50.999Z,59.3
2023-02-24T09:49:38.367Z,59.3
2023-02-24T09:50:55.063Z,58.9
2023-02-24T09:51:23.507Z,59.0
2023-02-24T09:52:10.993Z,59.6
2023-02-24T09:53:06.383Z,59.3
2023-02-24T09:53:55.787Z,58.9
2023-02-24T09:54:43.233Z,58.8
2023-02-24T09:55:30.706Z,59.2
2023-02-24T09:56:18.156Z,59.2
2023-02-24T09:57:05.608Z,59.0
2023-02-24T09:57:52.942Z,57.2
2023-02-24T09:58:43.922Z,57.0
2023-02-24T09:59:31.611Z,56.8
2023-02-24T10:00:19.492Z,57.3
2023-02-24T10:01:07.079Z,57.1
2023-02-24T10:01:54.526Z,56.3
2023-02-24T10:02:41.985Z,56.4
2023-02-24T10:03:29.400Z,56.2
2023-02-24T10:04:21.103Z,56.5
2023-02-24T10:05:09.087Z,56.5
2023-02-24T10:05:56.430Z,56.4
2023-02-24T10:06:43.744Z,56.6
2023-02-24T10:07:31.053Z,57.0
2023-02-24T10:08:18.595Z,56.7
2023-02-24T10:09:05.922Z,57.0
2023-02-24T10:09:53.392Z,55.9
2023-02-24T10:10:40.737Z,56.8
2023-02-24T10:11:28.064Z,56.8
2023-02-24T10:12:15.394Z,56.4
2023-02-24T10:13:02.831Z,56.9
2023-02-24T10:13:50.199Z,57.0
2023-02-24T10:14:42.945Z,56.7
2023-02-24T10:15:30.933Z,56.7
2023-02-24T10:16:18.439Z,57.0
2023-02-24T10:17:05.794Z,56.8
2023-02-24T10:17:53.138Z,56.7
2023-02-24T10:18:40.571Z,57.0
2023-02-24T10:19:27.937Z,56.8
2023-02-24T10:20:15.362Z,56.6
2023-02-24T10:21:02.834Z,57.4
2023-02-24T10:21:50.316Z,56.9
2023-02-24T10:22:37.632Z,56.8
2023-02-24T10:23:25.098Z,56.9
2023-02-24T10:24:12.469Z,57.0
2023-02-24T10:24:59.800Z,56.9
2023-02-24T10:25:47.209Z,57.1
2023-02-24T10:26:34.477Z,57.0
2023-02-24T10:27:21.775Z,57.0
2023-02-24T10:28:09.207Z,57.1
2023-02-24T10:28:56.677Z,57.0
2023-02-24T10:29:44.022Z,57.1
2023-02-24T10:30:31.501Z,56.8
2023-02-24T10:31:19.202Z,56.8
2023-02-24T10:32:07.147Z,56.9
2023-02-24T10:32:54.976Z,57.1
2023-02-24T10:33:42.339Z,57.3
2023-02-24T10:34:29.680Z,57.0
2023-02-24T10:35:17.455Z,57.1
2023-02-24T10:36:05.511Z,57.2
2023-02-24T10:36:53.637Z,56.8
2023-02-24T10:37:41.001Z,56.9
2023-02-24T10:38:28.306Z,56.5
2023-02-24T10:39:15.672Z,57.0
2023-02-24T10:40:03.042Z,56.4
2023-02-24T10:40:50.365Z,56.5
2023-02-24T10:41:37.762Z,56.5
2023-02-24T10:42:25.112Z,56.8
2023-02-24T10:43:12.422Z,56.9
2023-02-24T10:43:59.842Z,56.8
2023-02-24T10:44:51.191Z,56.6
2023-02-24T10:45:44.595Z,57.1
2023-02-24T10:46:41.141Z,56.7
2023-02-24T10:47:29.175Z,56.5
2023-02-24T10:48:16.565Z,57.0
2023-02-24T10:49:03.913Z,56.7
2023-02-24T10:49:51.239Z,56.9
2023-02-24T10:50:41.394Z,57.3
2023-02-24T10:51:34.342Z,57.4
2023-02-24T10:52:21.759Z,57.3
2023-02-24T10:53:09.093Z,57.4
2023-02-24T10:53:56.436Z,57.3
2023-02-24T10:54:44.307Z,57.3
2023-02-24T10:55:31.863Z,57.3
2023-02-24T10:56:19.593Z,57.4
2023-02-24T10:57:07.170Z,57.3
2023-02-24T10:57:59.211Z,57.6
2023-02-24T10:58:46.825Z,57.6
2023-02-24T10:59:34.150Z,57.6
2023-02-24T11:00:21.529Z,57.8
2023-02-24T11:01:08.965Z,57.8
2023-02-24T11:01:56.407Z,57.6
2023-02-24T11:02:43.745Z,57.6
2023-02-24T11:03:32.967Z,57.5
2023-02-24T11:04:20.269Z,57.9
2023-02-24T11:05:07.724Z,58.0
2023-02-24T11:05:55.118Z,58.2
2023-02-24T11:06:42.567Z,58.4
2023-02-24T11:07:29.907Z,58.1
2023-02-24T11:08:17.263Z,57.9
2023-02-24T11:09:04.693Z,58.3
2023-02-24T11:09:52.028Z,58.5
2023-02-24T11:10:39.374Z,58.0
2023-02-24T11:11:26.674Z,58.3
2023-02-24T11:12:14.077Z,58.0
2023-02-24T11:13:09.230Z,57.8
2023-02-24T11:13:57.489Z,57.9
2023-02-24T11:14:44.879Z,58.2
2023-02-24T11:15:32.241Z,57.8
2023-02-24T11:16:19.843Z,57.8
2023-02-24T11:17:07.194Z,57.7
2023-02-24T11:17:54.575Z,57.9
2023-02-24T11:18:41.967Z,57.9
2023-02-24T11:19:29.317Z,57.2
2023-02-24T11:20:16.702Z,57.3
2023-02-24T11:21:04.049Z,57.8
2023-02-24T11:21:51.468Z,57.7
2023-02-24T11:22:38.788Z,57.7
2023-02-24T11:23:26.124Z,58.1
2023-02-24T11:24:13.540Z,59.0
2023-02-24T11:25:01.867Z,59.0
2023-02-24T11:25:50.458Z,58.8
2023-02-24T11:26:37.955Z,58.8
2023-02-24T11:27:25.287Z,58.7
2023-02-24T11:28:12.650Z,58.8
2023-02-24T11:28:59.988Z,59.2
2023-02-24T11:29:47.463Z,58.7
2023-02-24T11:30:34.828Z,58.6
2023-02-24T11:31:22.703Z,58.5
2023-02-24T11:32:12.688Z,59.2
2023-02-24T11:33:01.523Z,58.8
2023-02-24T11:33:48.865Z,58.5
2023-02-24T11:34:36.191Z,59.1
2023-02-24T11:35:24.093Z,59.0
2023-02-24T11:36:11.996Z,59.0
2023-02-24T11:36:59.297Z,58.8
2023-02-24T11:37:46.642Z,58.5
2023-02-24T11:38:33.981Z,58.6
2023-02-24T11:39:21.812Z,58.6
2023-02-24T11:40:09.556Z,58.1
2023-02-24T11:40:56.862Z,58.7
2023-02-24T11:41:44.207Z,59.3
2023-02-24T11:42:31.679Z,58.8
2023-02-24T11:43:19.015Z,58.9
2023-02-24T11:44:06.491Z,58.9
2023-02-24T11:44:53.817Z,58.8
2023-02-24T11:45:41.135Z,58.2
2023-02-24T11:46:28.540Z,58.2
2023-02-24T11:47:15.915Z,58.0
2023-02-24T11:48:03.249Z,57.7
2023-02-24T11:48:51.022Z,58.2
2023-02-24T11:49:38.350Z,58.1
2023-02-24T11:50:25.733Z,58.1
2023-02-24T11:51:13.424Z,58.2
2023-02-24T11:52:00.924Z,58.2
2023-02-24T11:52:48.386Z,58.1
2023-02-24T11:53:35.729Z,58.4
2023-02-24T11:54:23.053Z,58.4
2023-02-24T11:55:10.452Z,58.3
2023-02-24T11:55:58.985Z,58.8
2023-02-24T11:56:46.595Z,58.6
2023-02-24T11:57:34.059Z,58.9
2023-02-24T11:58:21.376Z,58.7
2023-02-24T11:59:08.826Z,58.7
2023-02-24T11:59:56.153Z,58.5
2023-02-24T12:00:43.492Z,58.6
2023-02-24T12:01:30.801Z,58.4
2023-02-24T12:02:18.325Z,58.8
2023-02-24T12:03:05.745Z,58.9
2023-02-24T12:03:53.166Z,58.8
2023-02-24T12:04:40.511Z,58.5
2023-02-24T12:05:27.866Z,58.5
2023-02-24T12:06:15.318Z,58.6
2023-02-24T12:07:02.683Z,58.5
2023-02-24T12:07:50.403Z,57.8
2023-02-24T12:08:37.746Z,57.7
2023-02-24T12:09:25.398Z,57.7
2023-02-24T12:10:17.237Z,57.4
2023-02-24T12:11:05.116Z,57.8
2023-02-24T12:11:52.446Z,57.5
2023-02-24T12:12:39.851Z,57.3
2023-02-24T12:13:27.666Z,57.6
2023-02-24T12:14:15.290Z,57.6
2023-02-24T12:15:02.676Z,57.3
2023-02-24T12:15:50.049Z,57.9
2023-02-24T12:16:37.462Z,57.5
2023-02-24T12:17:25.316Z,57.4
2023-02-24T12:18:13.844Z,56.5
2023-02-24T12:19:01.399Z,57.6
2023-02-24T12:19:48.725Z,57.4
2023-02-24T12:20:36.043Z,57.9
2023-02-24T12:21:23.615Z,57.7
2023-02-24T12:22:11.180Z,57.4
2023-02-24T12:22:58.499Z,57.8
2023-02-24T12:23:45.887Z,57.4
2023-02-24T12:24:33.428Z,57.6
2023-02-24T12:25:20.813Z,57.7
2023-02-24T12:26:08.140Z,57.7
2023-02-24T12:26:55.573Z,57.6
2023-02-24T12:27:42.925Z,57.7
2023-02-24T12:28:30.248Z,57.4
2023-02-24T12:29:17.571Z,57.4
2023-02-24T12:30:04.993Z,57.9
2023-02-24T12:30:52.355Z,57.9
2023-02-24T12:31:39.755Z,57.9
2023-02-24T12:32:27.292Z,58.1
2023-02-24T12:33:14.833Z,58.0
2023-02-24T12:34:02.156Z,57.4
2023-02-24T12:34:49.543Z,58.2
2023-02-24T12:35:36.895Z,58.2
2023-02-24T12:36:24.273Z,58.1
2023-02-24T12:37:11.654Z,57.9
2023-02-24T12:37:58.980Z,58.2
2023-02-24T12:38:46.310Z,58.4
2023-02-24T12:39:33.628Z,58.3
2023-02-24T12:40:20.957Z,57.7
2023-02-24T12:41:08.298Z,57.7
2023-02-24T12:41:55.628Z,57.7
2023-02-24T12:42:42.975Z,57.2
2023-02-24T12:43:30.315Z,57.6
2023-02-24T12:44:17.634Z,56.9
2023-02-24T12:45:04.984Z,57.0
2023-02-24T12:45:52.343Z,58.1
2023-02-24T12:46:39.694Z,57.5
2023-02-24T12:47:27.980Z,57.5
2023-02-24T12:48:15.369Z,57.5
2023-02-24T12:49:02.713Z,57.4
2023-02-24T12:49:50.028Z,57.4
2023-02-24T12:50:37.461Z,57.2
2023-02-24T12:51:24.998Z,57.2
2023-02-24T12:52:12.622Z,57.5
2023-02-24T12:52:59.969Z,57.5
2023-02-24T12:53:47.294Z,57.2
2023-02-24T12:54:34.628Z,57.5
2023-02-24T12:55:21.939Z,57.3
2023-02-24T12:56:09.485Z,57.9
2023-02-24T12:56:56.816Z,57.4
2023-02-24T12:57:44.132Z,57.1
2023-02-24T12:58:31.475Z,57.7
2023-02-24T12:59:18.828Z,57.7
2023-02-24T13:00:06.186Z,57.8
2023-02-24T13:00:53.550Z,57.5
2023-02-24T13:01:40.876Z,57.2
2023-02-24T13:02:28.246Z,57.4
2023-02-24T13:03:15.591Z,57.6
2023-02-24T13:04:02.972Z,57.3
2023-02-24T13:04:50.327Z,57.8
2023-02-24T13:05:37.685Z,57.3
2023-02-24T13:06:24.986Z,57.5
2023-02-24T13:07:12.330Z,57.5
2023-02-24T13:07:59.684Z,57.9
2023-02-24T13:08:47.086Z,57.5
2023-02-24T13:09:34.414Z,57.5
2023-02-24T13:10:21.845Z,57.7
2023-02-24T13:11:09.174Z,57.8
2023-02-24T13:11:56.516Z,57.4
2023-02-24T13:12:43.841Z,57.8
2023-02-24T13:13:31.178Z,57.8
2023-02-24T13:14:18.575Z,58.0
2023-02-24T13:15:05.951Z,58.3
2023-02-24T13:15:53.325Z,58.0
2023-02-24T13:16:40.815Z,57.1
2023-02-24T13:17:28.166Z,57.7
2023-02-24T13:18:15.506Z,57.1
2023-02-24T13:19:02.880Z,58.1
2023-02-24T13:19:50.197Z,57.6
2023-02-24T13:20:37.548Z,57.9
2023-02-24T13:21:25.099Z,58.3
2023-02-24T13:22:12.506Z,58.2
2023-02-24T13:22:59.847Z,58.3
2023-02-24T13:23:47.159Z,58.1
2023-02-24T13:24:34.588Z,58.0
2023-02-24T13:25:21.951Z,58.2
2023-02-24T13:26:09.273Z,58.3
2023-02-24T13:26:56.614Z,58.0
2023-02-24T13:27:43.928Z,58.3
2023-02-24T13:28:31.801Z,58.8
2023-02-24T13:29:19.553Z,58.8
2023-02-24T13:30:06.923Z,58.2
2023-02-24T13:30:54.322Z,58.4
2023-02-24T13:31:41.769Z,57.8
2023-02-24T13:32:29.418Z,57.7
2023-02-24T13:33:17.020Z,57.7
2023-02-24T13:34:04.347Z,57.2
2023-02-24T13:34:51.971Z,57.8
2023-02-24T13:35:39.305Z,57.5
2023-02-24T13:36:26.633Z,57.3
2023-02-24T13:37:13.947Z,57.7
2023-02-24T13:38:01.275Z,57.8
2023-02-24T13:38:48.683Z,57.6
2023-02-24T13:39:36.022Z,57.6
2023-02-24T13:40:23.424Z,57.9
2023-02-24T13:41:10.810Z,58.3
2023-02-24T13:41:58.191Z,58.2
2023-02-24T13:42:45.529Z,58.3
2023-02-24T13:43:32.885Z,58.3
2023-02-24T13:44:20.233Z,58.1
2023-02-24T13:45:07.560Z,58.0
2023-02-24T13:45:54.964Z,58.0
2023-02-24T13:46:42.360Z,57.7
2023-02-24T13:47:29.685Z,58.2
2023-02-24T13:48:17.101Z,57.7
2023-02-24T13:49:04.493Z,58.0
2023-02-24T13:49:51.828Z,57.3
2023-02-24T13:50:39.156Z,57.2
2023-02-24T13:51:26.477Z,57.0
2023-02-24T13:52:13.845Z,57.4
2023-02-24T13:53:01.196Z,57.4
2023-02-24T13:53:48.567Z,57.6
2023-02-24T13:54:35.879Z,57.5
2023-02-24T13:55:23.196Z,57.4
2023-02-24T13:56:10.672Z,57.2
2023-02-24T13:56:57.969Z,56.9
2023-02-24T13:57:45.272Z,56.5
2023-02-24T13:58:32.622Z,56.7
2023-02-24T13:59:19.987Z,57.1
2023-02-24T14:00:07.355Z,56.7
2023-02-24T14:00:54.763Z,57.1
2023-02-24T14:01:42.194Z,56.8
2023-02-24T14:02:29.558Z,56.7
2023-02-24T14:03:16.942Z,57.0
2023-02-24T14:04:04.263Z,57.4
2023-02-24T14:04:51.583Z,57.8
2023-02-24T14:05:38.909Z,57.1
2023-02-24T14:06:26.252Z,57.8
2023-02-24T14:07:13.584Z,57.5
2023-02-24T14:08:00.890Z,57.2
2023-02-24T14:08:48.274Z,57.8
2023-02-24T14:09:35.602Z,57.6
2023-02-24T14:10:22.912Z,57.3
2023-02-24T14:11:10.228Z,57.3
2023-02-24T14:11:57.567Z,56.9
2023-02-24T14:12:44.915Z,57.1
2023-02-24T14:13:32.363Z,56.9
2023-02-24T14:14:19.694Z,57.4
2023-02-24T14:15:07.408Z,57.4
2023-02-24T14:15:54.936Z,57.1
2023-02-24T14:16:42.338Z,57.3
2023-02-24T14:17:29.668Z,56.7
2023-02-24T14:18:17.116Z,57.5
2023-02-24T14:19:04.485Z,56.8
2023-02-24T14:19:51.789Z,57.0
2023-02-24T14:20:39.116Z,56.8
2023-02-24T14:21:26.450Z,56.9
2023-02-24T14:22:13.780Z,57.2
2023-02-24T14:23:01.089Z,56.4
2023-02-24T14:23:48.402Z,57.4
2023-02-24T14:24:35.721Z,56.4
2023-02-24T14:25:23.053Z,56.9
2023-02-24T14:26:10.382Z,56.7
2023-02-24T14:26:58.167Z,57.1
2023-02-24T14:27:45.483Z,57.1
2023-02-24T14:28:32.929Z,57.4
2023-02-24T14:29:20.244Z,56.9
2023-02-24T14:30:07.659Z,57.0
2023-02-24T14:30:55.130Z,56.8
2023-02-24T14:31:42.709Z,56.8
2023-02-24T14:32:30.200Z,57.2
2023-02-24T14:33:17.565Z,57.1
2023-02-24T14:34:04.939Z,56.7
2023-02-24T14:34:52.266Z,56.8
2023-02-24T14:35:39.680Z,56.9
2023-02-24T14:36:27.041Z,57.2
2023-02-24T14:37:14.363Z,56.3
2023-02-24T14:38:02.389Z,56.9
2023-02-24T14:38:49.818Z,57.0
2023-02-24T14:39:37.115Z,56.7
2023-02-24T14:40:24.448Z,56.9
2023-02-24T14:41:11.816Z,56.9
2023-02-24T14:41:59.131Z,56.7
2023-02-24T14:42:46.482Z,56.3
2023-02-24T14:43:33.856Z,56.2
2023-02-24T14:44:21.194Z,56.3
2023-02-24T14:45:08.498Z,56.5
2023-02-24T14:45:55.935Z,56.7
2023-02-24T14:46:43.343Z,56.6
2023-02-24T14:47:30.769Z,56.1
2023-02-24T14:48:18.108Z,56.3
2023-02-24T14:49:05.448Z,56.6
2023-02-24T14:49:52.784Z,56.3
2023-02-24T14:50:40.183Z,56.6
2023-02-24T14:51:27.535Z,56.3
2023-02-24T14:52:15.101Z,56.5
2023-02-24T14:53:02.414Z,56.2
2023-02-24T14:53:49.720Z,55.7
2023-02-24T14:54:37.061Z,56.5
2023-02-24T14:55:24.472Z,56.2
2023-02-24T14:56:11.978Z,56.1
2023-02-24T14:56:59.550Z,56.3
2023-02-24T14:57:46.863Z,56.7
2023-02-24T14:58:34.190Z,56.3
2023-02-24T14:59:21.518Z,55.8
2023-02-24T15:00:08.940Z,56.2
2023-02-24T15:00:56.281Z,56.5
2023-02-24T15:01:43.713Z,56.3
2023-02-24T15:02:31.110Z,56.1
2023-02-24T15:03:18.501Z,56.6
2023-02-24T15:04:05.866Z,56.4
2023-02-24T15:04:53.294Z,56.1
2023-02-24T15:05:40.609Z,56.3
2023-02-24T15:06:27.939Z,56.5
2023-02-24T15:07:15.352Z,56.5
2023-02-24T15:08:02.884Z,56.1
2023-02-24T15:08:50.253Z,56.5
2023-02-24T15:09:37.641Z,56.4
2023-02-24T15:10:24.972Z,56.1
2023-02-24T15:11:12.305Z,56.1